sensor_id;sensor_type;location;lat;lon;timestamp;temperature;humidity
10538;DHT22;5317;49.048;8.468;2022-12-24T00:01:29;24.60;48.50
10538;DHT22;5317;49.048;8.468;2022-12-24T00:03:57;24.60;48.50
10538;DHT22;5317;49.048;8.468;2022-12-24T00:06:25;24.60;48.50
10538;DHT22;5317;49.048;8.468;2022-12-24T00:08:52;24.60;48.40
10538;DHT22;5317;49.048;8.468;2022-12-24T00:11:20;24.60;48.50
10538;DHT22;5317;49.048;8.468;2022-12-24T00:13:47;24.60;48.50
10538;DHT22;5317;49.048;8.468;2022-12-24T00:16:14;24.60;48.40
10538;DHT22;5317;49.048;8.468;2022-12-24T00:18:42;24.70;48.60
10538;DHT22;5317;49.048;8.468;2022-12-24T00:21:10;24.70;48.50
10538;DHT22;5317;49.048;8.468;2022-12-24T00:23:39;24.70;49.10
10538;DHT22;5317;49.048;8.468;2022-12-24T00:26:06;24.70;48.50
10538;DHT22;5317;49.048;8.468;2022-12-24T00:28:33;24.70;49.10
10538;DHT22;5317;49.048;8.468;2022-12-24T00:31:07;24.70;48.50
10538;DHT22;5317;49.048;8.468;2022-12-24T00:33:35;24.70;48.50
10538;DHT22;5317;49.048;8.468;2022-12-24T00:36:02;24.70;48.40
10538;DHT22;5317;49.048;8.468;2022-12-24T00:38:31;24.70;48.40
10538;DHT22;5317;49.048;8.468;2022-12-24T00:40:59;24.70;48.30
10538;DHT22;5317;49.048;8.468;2022-12-24T00:43:26;24.70;48.30
10538;DHT22;5317;49.048;8.468;2022-12-24T00:45:54;24.80;48.30
10538;DHT22;5317;49.048;8.468;2022-12-24T00:48:22;24.80;48.30
10538;DHT22;5317;49.048;8.468;2022-12-24T00:50:50;24.80;48.30
10538;DHT22;5317;49.048;8.468;2022-12-24T00:53:17;24.80;48.30
10538;DHT22;5317;49.048;8.468;2022-12-24T00:55:46;24.80;48.20
10538;DHT22;5317;49.048;8.468;2022-12-24T00:58:13;24.80;48.20
10538;DHT22;5317;49.048;8.468;2022-12-24T01:00:40;24.80;48.10
10538;DHT22;5317;49.048;8.468;2022-12-24T01:03:07;24.80;48.10
10538;DHT22;5317;49.048;8.468;2022-12-24T01:05:35;24.90;48.20
10538;DHT22;5317;49.048;8.468;2022-12-24T01:08:01;24.80;48.10
10538;DHT22;5317;49.048;8.468;2022-12-24T01:10:28;24.80;48.00
10538;DHT22;5317;49.048;8.468;2022-12-24T01:12:59;24.90;48.10
10538;DHT22;5317;49.048;8.468;2022-12-24T01:15:28;24.90;48.20
10538;DHT22;5317;49.048;8.468;2022-12-24T01:17:55;24.90;48.10
10538;DHT22;5317;49.048;8.468;2022-12-24T01:20:22;24.90;48.10
10538;DHT22;5317;49.048;8.468;2022-12-24T01:22:51;24.90;48.00
10538;DHT22;5317;49.048;8.468;2022-12-24T01:25:18;24.90;48.00
10538;DHT22;5317;49.048;8.468;2022-12-24T01:27:45;24.90;47.90
10538;DHT22;5317;49.048;8.468;2022-12-24T01:30:14;24.90;47.90
10538;DHT22;5317;49.048;8.468;2022-12-24T01:32:41;24.90;47.90
10538;DHT22;5317;49.048;8.468;2022-12-24T01:35:09;24.90;47.90
10538;DHT22;5317;49.048;8.468;2022-12-24T01:37:37;24.90;47.90
10538;DHT22;5317;49.048;8.468;2022-12-24T01:40:06;24.90;47.90
10538;DHT22;5317;49.048;8.468;2022-12-24T01:42:53;24.90;47.90
10538;DHT22;5317;49.048;8.468;2022-12-24T01:45:46;25.00;47.80
10538;DHT22;5317;49.048;8.468;2022-12-24T01:48:27;24.90;47.90
10538;DHT22;5317;49.048;8.468;2022-12-24T01:51:03;24.90;48.00
10538;DHT22;5317;49.048;8.468;2022-12-24T01:53:36;24.90;47.90
10538;DHT22;5317;49.048;8.468;2022-12-24T01:56:05;25.00;48.00
10538;DHT22;5317;49.048;8.468;2022-12-24T01:58:35;24.90;47.90
10538;DHT22;5317;49.048;8.468;2022-12-24T02:01:06;24.90;47.90
10538;DHT22;5317;49.048;8.468;2022-12-24T02:03:35;24.90;47.90
10538;DHT22;5317;49.048;8.468;2022-12-24T02:06:03;24.90;47.80
10538;DHT22;5317;49.048;8.468;2022-12-24T02:08:32;25.00;47.90
10538;DHT22;5317;49.048;8.468;2022-12-24T02:11:09;24.90;47.90
10538;DHT22;5317;49.048;8.468;2022-12-24T02:13:39;24.90;47.90
10538;DHT22;5317;49.048;8.468;2022-12-24T02:16:16;24.90;47.90
10538;DHT22;5317;49.048;8.468;2022-12-24T02:18:59;24.90;47.90
10538;DHT22;5317;49.048;8.468;2022-12-24T02:21:56;24.90;47.90
10538;DHT22;5317;49.048;8.468;2022-12-24T02:24:51;24.90;47.90
10538;DHT22;5317;49.048;8.468;2022-12-24T02:27:41;24.90;47.90
10538;DHT22;5317;49.048;8.468;2022-12-24T02:30:18;24.90;47.90
10538;DHT22;5317;49.048;8.468;2022-12-24T02:33:04;24.90;47.90
10538;DHT22;5317;49.048;8.468;2022-12-24T02:35:46;24.90;47.90
10538;DHT22;5317;49.048;8.468;2022-12-24T02:38:21;24.90;47.90
10538;DHT22;5317;49.048;8.468;2022-12-24T02:40:57;24.90;47.90
10538;DHT22;5317;49.048;8.468;2022-12-24T02:43:31;24.90;47.80
10538;DHT22;5317;49.048;8.468;2022-12-24T02:46:06;24.90;47.90
10538;DHT22;5317;49.048;8.468;2022-12-24T02:48:40;24.90;47.90
10538;DHT22;5317;49.048;8.468;2022-12-24T02:51:10;24.90;47.90
10538;DHT22;5317;49.048;8.468;2022-12-24T02:53:38;24.90;47.70
10538;DHT22;5317;49.048;8.468;2022-12-24T02:56:17;24.90;47.80
10538;DHT22;5317;49.048;8.468;2022-12-24T02:59:16;24.90;47.80
10538;DHT22;5317;49.048;8.468;2022-12-24T03:02:02;24.90;47.90
10538;DHT22;5317;49.048;8.468;2022-12-24T03:04:50;24.90;47.90
10538;DHT22;5317;49.048;8.468;2022-12-24T03:07:28;24.90;47.80
10538;DHT22;5317;49.048;8.468;2022-12-24T03:10:10;24.90;47.80
10538;DHT22;5317;49.048;8.468;2022-12-24T03:12:46;24.90;47.80
10538;DHT22;5317;49.048;8.468;2022-12-24T03:15:19;24.90;47.80
10538;DHT22;5317;49.048;8.468;2022-12-24T03:17:54;24.90;47.80
10538;DHT22;5317;49.048;8.468;2022-12-24T03:20:25;24.90;47.80
10538;DHT22;5317;49.048;8.468;2022-12-24T03:22:58;24.90;47.90
10538;DHT22;5317;49.048;8.468;2022-12-24T03:25:26;24.90;47.80
10538;DHT22;5317;49.048;8.468;2022-12-24T03:27:54;24.90;47.80
10538;DHT22;5317;49.048;8.468;2022-12-24T03:30:25;24.90;47.80
10538;DHT22;5317;49.048;8.468;2022-12-24T03:32:54;24.90;47.90
10538;DHT22;5317;49.048;8.468;2022-12-24T03:35:22;24.80;47.70
10538;DHT22;5317;49.048;8.468;2022-12-24T03:37:50;24.90;47.80
10538;DHT22;5317;49.048;8.468;2022-12-24T03:40:17;24.90;47.80
10538;DHT22;5317;49.048;8.468;2022-12-24T03:42:45;24.80;47.70
10538;DHT22;5317;49.048;8.468;2022-12-24T03:45:12;24.90;47.70
10538;DHT22;5317;49.048;8.468;2022-12-24T03:47:39;24.90;47.80
10538;DHT22;5317;49.048;8.468;2022-12-24T03:50:08;24.80;47.80
10538;DHT22;5317;49.048;8.468;2022-12-24T03:52:36;24.80;47.70
10538;DHT22;5317;49.048;8.468;2022-12-24T03:55:03;24.80;47.70
10538;DHT22;5317;49.048;8.468;2022-12-24T03:57:31;24.80;47.70
10538;DHT22;5317;49.048;8.468;2022-12-24T03:59:58;24.80;47.70
10538;DHT22;5317;49.048;8.468;2022-12-24T04:02:25;24.80;47.70
10538;DHT22;5317;49.048;8.468;2022-12-24T04:04:53;24.80;47.70
10538;DHT22;5317;49.048;8.468;2022-12-24T04:07:21;24.80;47.70
10538;DHT22;5317;49.048;8.468;2022-12-24T04:09:49;24.80;47.70
10538;DHT22;5317;49.048;8.468;2022-12-24T04:12:19;24.80;47.80
10538;DHT22;5317;49.048;8.468;2022-12-24T04:14:46;24.70;47.70
10538;DHT22;5317;49.048;8.468;2022-12-24T04:17:15;24.80;47.70
10538;DHT22;5317;49.048;8.468;2022-12-24T04:19:42;24.70;47.70
10538;DHT22;5317;49.048;8.468;2022-12-24T04:22:09;24.80;47.70
10538;DHT22;5317;49.048;8.468;2022-12-24T04:24:38;24.80;47.80
10538;DHT22;5317;49.048;8.468;2022-12-24T04:27:05;24.70;47.60
10538;DHT22;5317;49.048;8.468;2022-12-24T04:29:32;24.80;47.80
10538;DHT22;5317;49.048;8.468;2022-12-24T04:32:00;24.70;47.70
10538;DHT22;5317;49.048;8.468;2022-12-24T04:34:27;24.70;47.70
10538;DHT22;5317;49.048;8.468;2022-12-24T04:36:54;24.70;47.60
10538;DHT22;5317;49.048;8.468;2022-12-24T04:39:22;24.70;47.60
10538;DHT22;5317;49.048;8.468;2022-12-24T04:41:50;24.70;47.70
10538;DHT22;5317;49.048;8.468;2022-12-24T04:44:17;24.70;47.60
10538;DHT22;5317;49.048;8.468;2022-12-24T04:46:44;24.70;47.70
10538;DHT22;5317;49.048;8.468;2022-12-24T04:49:12;24.70;47.60
10538;DHT22;5317;49.048;8.468;2022-12-24T04:51:39;24.70;47.60
10538;DHT22;5317;49.048;8.468;2022-12-24T04:54:06;24.70;47.70
10538;DHT22;5317;49.048;8.468;2022-12-24T04:56:33;24.70;47.70
10538;DHT22;5317;49.048;8.468;2022-12-24T04:59:03;24.70;47.70
10538;DHT22;5317;49.048;8.468;2022-12-24T05:01:31;24.70;47.70
10538;DHT22;5317;49.048;8.468;2022-12-24T05:03:58;24.70;47.70
10538;DHT22;5317;49.048;8.468;2022-12-24T05:06:28;24.70;47.70
10538;DHT22;5317;49.048;8.468;2022-12-24T05:08:58;24.70;47.70
10538;DHT22;5317;49.048;8.468;2022-12-24T05:11:26;24.70;47.70
10538;DHT22;5317;49.048;8.468;2022-12-24T05:13:53;24.70;47.70
10538;DHT22;5317;49.048;8.468;2022-12-24T05:16:22;24.70;47.60
10538;DHT22;5317;49.048;8.468;2022-12-24T05:18:50;24.70;47.70
10538;DHT22;5317;49.048;8.468;2022-12-24T05:21:20;24.70;47.70
10538;DHT22;5317;49.048;8.468;2022-12-24T05:23:49;24.70;47.70
10538;DHT22;5317;49.048;8.468;2022-12-24T05:26:52;24.70;47.70
10538;DHT22;5317;49.048;8.468;2022-12-24T05:29:21;24.60;47.60
10538;DHT22;5317;49.048;8.468;2022-12-24T05:31:50;24.70;47.70
10538;DHT22;5317;49.048;8.468;2022-12-24T05:34:17;24.70;47.60
10538;DHT22;5317;49.048;8.468;2022-12-24T05:36:44;24.70;47.60
10538;DHT22;5317;49.048;8.468;2022-12-24T05:39:13;24.60;47.50
10538;DHT22;5317;49.048;8.468;2022-12-24T05:41:41;24.60;47.60
10538;DHT22;5317;49.048;8.468;2022-12-24T05:44:09;24.70;47.70
10538;DHT22;5317;49.048;8.468;2022-12-24T05:46:36;24.70;47.60
10538;DHT22;5317;49.048;8.468;2022-12-24T05:49:05;24.70;47.60
10538;DHT22;5317;49.048;8.468;2022-12-24T05:51:32;24.70;47.60
10538;DHT22;5317;49.048;8.468;2022-12-24T05:53:59;24.70;47.50
10538;DHT22;5317;49.048;8.468;2022-12-24T05:56:26;24.70;47.50
10538;DHT22;5317;49.048;8.468;2022-12-24T05:58:54;24.70;47.50
10538;DHT22;5317;49.048;8.468;2022-12-24T06:01:23;24.70;47.50
10538;DHT22;5317;49.048;8.468;2022-12-24T06:03:51;24.70;47.60
10538;DHT22;5317;49.048;8.468;2022-12-24T06:06:21;24.70;47.60
10538;DHT22;5317;49.048;8.468;2022-12-24T06:08:52;24.70;47.50
10538;DHT22;5317;49.048;8.468;2022-12-24T06:11:22;24.70;47.60
10538;DHT22;5317;49.048;8.468;2022-12-24T06:13:52;24.70;47.50
10538;DHT22;5317;49.048;8.468;2022-12-24T06:16:20;24.70;47.50
10538;DHT22;5317;49.048;8.468;2022-12-24T06:18:48;24.70;47.50
10538;DHT22;5317;49.048;8.468;2022-12-24T06:21:15;24.70;47.40
10538;DHT22;5317;49.048;8.468;2022-12-24T06:23:45;24.80;47.50
10538;DHT22;5317;49.048;8.468;2022-12-24T06:26:15;24.80;47.50
10538;DHT22;5317;49.048;8.468;2022-12-24T06:28:47;24.80;47.50
10538;DHT22;5317;49.048;8.468;2022-12-24T06:31:18;24.80;47.50
10538;DHT22;5317;49.048;8.468;2022-12-24T06:33:46;24.80;47.50
10538;DHT22;5317;49.048;8.468;2022-12-24T06:36:16;24.80;47.40
10538;DHT22;5317;49.048;8.468;2022-12-24T06:38:46;24.80;47.40
10538;DHT22;5317;49.048;8.468;2022-12-24T06:41:14;24.80;47.30
10538;DHT22;5317;49.048;8.468;2022-12-24T06:43:43;24.90;47.40
10538;DHT22;5317;49.048;8.468;2022-12-24T06:46:15;24.80;47.20
10538;DHT22;5317;49.048;8.468;2022-12-24T06:48:44;24.90;47.40
10538;DHT22;5317;49.048;8.468;2022-12-24T06:51:12;24.90;47.30
10538;DHT22;5317;49.048;8.468;2022-12-24T06:53:40;24.90;47.30
10538;DHT22;5317;49.048;8.468;2022-12-24T06:56:10;24.90;47.20
10538;DHT22;5317;49.048;8.468;2022-12-24T06:58:40;24.90;47.20
10538;DHT22;5317;49.048;8.468;2022-12-24T07:01:09;24.90;47.20
10538;DHT22;5317;49.048;8.468;2022-12-24T07:03:38;24.90;47.20
10538;DHT22;5317;49.048;8.468;2022-12-24T07:06:06;24.90;47.20
10538;DHT22;5317;49.048;8.468;2022-12-24T07:08:36;24.90;47.20
10538;DHT22;5317;49.048;8.468;2022-12-24T07:11:04;24.90;47.00
10538;DHT22;5317;49.048;8.468;2022-12-24T07:13:32;24.90;47.00
10538;DHT22;5317;49.048;8.468;2022-12-24T07:16:01;24.90;47.60
10538;DHT22;5317;49.048;8.468;2022-12-24T07:18:30;25.00;47.10
10538;DHT22;5317;49.048;8.468;2022-12-24T07:20:57;25.00;47.10
10538;DHT22;5317;49.048;8.468;2022-12-24T07:23:25;25.00;47.10
10538;DHT22;5317;49.048;8.468;2022-12-24T07:25:52;25.00;47.00
10538;DHT22;5317;49.048;8.468;2022-12-24T07:28:19;25.00;47.00
10538;DHT22;5317;49.048;8.468;2022-12-24T07:30:48;25.00;47.00
10538;DHT22;5317;49.048;8.468;2022-12-24T07:33:15;25.00;47.60
10538;DHT22;5317;49.048;8.468;2022-12-24T07:35:43;25.00;47.00
10538;DHT22;5317;49.048;8.468;2022-12-24T07:38:10;25.00;47.00
10538;DHT22;5317;49.048;8.468;2022-12-24T07:40:37;25.00;47.00
10538;DHT22;5317;49.048;8.468;2022-12-24T07:43:04;25.00;46.90
10538;DHT22;5317;49.048;8.468;2022-12-24T07:45:32;25.00;47.00
10538;DHT22;5317;49.048;8.468;2022-12-24T07:48:00;25.00;47.00
10538;DHT22;5317;49.048;8.468;2022-12-24T07:50:27;25.00;46.90
10538;DHT22;5317;49.048;8.468;2022-12-24T07:52:55;25.00;47.00
10538;DHT22;5317;49.048;8.468;2022-12-24T07:55:22;25.00;47.00
10538;DHT22;5317;49.048;8.468;2022-12-24T07:57:49;25.00;47.00
10538;DHT22;5317;49.048;8.468;2022-12-24T08:00:17;25.00;47.00
10538;DHT22;5317;49.048;8.468;2022-12-24T08:02:44;25.00;47.70
10538;DHT22;5317;49.048;8.468;2022-12-24T08:05:13;25.00;47.00
10538;DHT22;5317;49.048;8.468;2022-12-24T08:07:40;25.00;47.00
10538;DHT22;5317;49.048;8.468;2022-12-24T08:10:08;25.00;47.00
10538;DHT22;5317;49.048;8.468;2022-12-24T08:12:36;25.00;47.00
10538;DHT22;5317;49.048;8.468;2022-12-24T08:15:04;25.00;47.00
10538;DHT22;5317;49.048;8.468;2022-12-24T08:17:32;25.00;47.10
10538;DHT22;5317;49.048;8.468;2022-12-24T08:19:59;25.00;47.00
10538;DHT22;5317;49.048;8.468;2022-12-24T08:22:27;25.00;47.00
10538;DHT22;5317;49.048;8.468;2022-12-24T08:24:55;25.00;47.00
10538;DHT22;5317;49.048;8.468;2022-12-24T08:27:22;24.90;47.00
10538;DHT22;5317;49.048;8.468;2022-12-24T08:29:49;24.90;47.00
10538;DHT22;5317;49.048;8.468;2022-12-24T08:32:17;24.90;47.00
10538;DHT22;5317;49.048;8.468;2022-12-24T08:34:44;25.00;47.10
10538;DHT22;5317;49.048;8.468;2022-12-24T08:37:11;25.00;47.00
10538;DHT22;5317;49.048;8.468;2022-12-24T08:39:40;25.00;47.00
10538;DHT22;5317;49.048;8.468;2022-12-24T08:42:09;25.00;47.00
10538;DHT22;5317;49.048;8.468;2022-12-24T08:44:36;24.90;46.90
10538;DHT22;5317;49.048;8.468;2022-12-24T08:47:04;24.90;46.90
10538;DHT22;5317;49.048;8.468;2022-12-24T08:49:31;24.90;46.90
10538;DHT22;5317;49.048;8.468;2022-12-24T08:51:58;25.00;47.00
10538;DHT22;5317;49.048;8.468;2022-12-24T08:54:26;24.90;46.80
10538;DHT22;5317;49.048;8.468;2022-12-24T08:56:57;24.90;46.90
10538;DHT22;5317;49.048;8.468;2022-12-24T08:59:24;24.90;46.90
10538;DHT22;5317;49.048;8.468;2022-12-24T09:01:51;25.00;47.00
10538;DHT22;5317;49.048;8.468;2022-12-24T09:04:19;24.90;46.90
10538;DHT22;5317;49.048;8.468;2022-12-24T09:06:46;24.90;46.90
10538;DHT22;5317;49.048;8.468;2022-12-24T09:09:13;24.90;46.90
10538;DHT22;5317;49.048;8.468;2022-12-24T09:11:41;24.90;46.90
10538;DHT22;5317;49.048;8.468;2022-12-24T09:14:11;24.90;47.00
10538;DHT22;5317;49.048;8.468;2022-12-24T09:16:38;25.00;46.90
10538;DHT22;5317;49.048;8.468;2022-12-24T09:19:05;24.90;46.90
10538;DHT22;5317;49.048;8.468;2022-12-24T09:21:32;24.90;47.60
10538;DHT22;5317;49.048;8.468;2022-12-24T09:24:00;24.90;47.00
10538;DHT22;5317;49.048;8.468;2022-12-24T09:26:30;24.90;47.10
10538;DHT22;5317;49.048;8.468;2022-12-24T09:28:58;24.90;47.00
10538;DHT22;5317;49.048;8.468;2022-12-24T09:31:28;24.90;47.60
10538;DHT22;5317;49.048;8.468;2022-12-24T09:33:55;24.90;47.00
10538;DHT22;5317;49.048;8.468;2022-12-24T09:36:22;24.90;47.00
10538;DHT22;5317;49.048;8.468;2022-12-24T09:38:49;24.90;47.00
10538;DHT22;5317;49.048;8.468;2022-12-24T09:41:27;24.90;47.00
10538;DHT22;5317;49.048;8.468;2022-12-24T09:44:08;24.90;47.20
10538;DHT22;5317;49.048;8.468;2022-12-24T09:46:46;24.90;47.10
10538;DHT22;5317;49.048;8.468;2022-12-24T09:49:18;24.90;47.10
10538;DHT22;5317;49.048;8.468;2022-12-24T09:51:53;24.90;47.10
10538;DHT22;5317;49.048;8.468;2022-12-24T09:54:30;24.90;47.20
10538;DHT22;5317;49.048;8.468;2022-12-24T09:57:03;24.80;47.20
10538;DHT22;5317;49.048;8.468;2022-12-24T09:59:40;24.80;47.30
10538;DHT22;5317;49.048;8.468;2022-12-24T10:02:13;24.80;47.40
10538;DHT22;5317;49.048;8.468;2022-12-24T10:04:43;24.80;47.40
10538;DHT22;5317;49.048;8.468;2022-12-24T10:07:23;24.80;47.50
10538;DHT22;5317;49.048;8.468;2022-12-24T10:10:10;24.80;47.60
10538;DHT22;5317;49.048;8.468;2022-12-24T10:12:48;24.70;47.60
10538;DHT22;5317;49.048;8.468;2022-12-24T10:15:26;24.70;47.70
10538;DHT22;5317;49.048;8.468;2022-12-24T10:18:09;24.70;47.80
10538;DHT22;5317;49.048;8.468;2022-12-24T10:20:50;24.70;48.00
10538;DHT22;5317;49.048;8.468;2022-12-24T10:23:27;24.80;48.20
10538;DHT22;5317;49.048;8.468;2022-12-24T10:26:09;24.60;47.50
10538;DHT22;5317;49.048;8.468;2022-12-24T10:28:45;24.30;47.50
10538;DHT22;5317;49.048;8.468;2022-12-24T10:31:18;24.00;47.50
10538;DHT22;5317;49.048;8.468;2022-12-24T10:33:55;23.90;48.00
10538;DHT22;5317;49.048;8.468;2022-12-24T10:36:28;23.90;48.00
10538;DHT22;5317;49.048;8.468;2022-12-24T10:38:56;23.80;47.90
10538;DHT22;5317;49.048;8.468;2022-12-24T10:41:25;23.90;48.30
10538;DHT22;5317;49.048;8.468;2022-12-24T10:43:54;23.90;48.40
10538;DHT22;5317;49.048;8.468;2022-12-24T10:46:27;24.00;48.30
10538;DHT22;5317;49.048;8.468;2022-12-24T10:49:04;24.10;48.30
10538;DHT22;5317;49.048;8.468;2022-12-24T10:51:39;24.20;48.30
10538;DHT22;5317;49.048;8.468;2022-12-24T10:54:13;24.20;48.50
10538;DHT22;5317;49.048;8.468;2022-12-24T10:56:47;24.20;48.80
10538;DHT22;5317;49.048;8.468;2022-12-24T10:59:25;24.30;48.90
10538;DHT22;5317;49.048;8.468;2022-12-24T11:01:54;24.40;48.90
10538;DHT22;5317;49.048;8.468;2022-12-24T11:04:25;24.40;48.80
10538;DHT22;5317;49.048;8.468;2022-12-24T11:06:58;24.40;48.70
10538;DHT22;5317;49.048;8.468;2022-12-24T11:09:28;24.40;48.50
10538;DHT22;5317;49.048;8.468;2022-12-24T11:11:58;24.40;48.40
10538;DHT22;5317;49.048;8.468;2022-12-24T11:14:30;24.50;48.50
10538;DHT22;5317;49.048;8.468;2022-12-24T11:17:00;24.50;48.50
10538;DHT22;5317;49.048;8.468;2022-12-24T11:19:33;24.50;48.40
10538;DHT22;5317;49.048;8.468;2022-12-24T11:22:05;24.50;48.40
10538;DHT22;5317;49.048;8.468;2022-12-24T11:24:35;24.50;48.40
10538;DHT22;5317;49.048;8.468;2022-12-24T11:27:29;24.60;48.50
10538;DHT22;5317;49.048;8.468;2022-12-24T11:30:22;24.50;48.50
10538;DHT22;5317;49.048;8.468;2022-12-24T11:33:20;24.60;48.50
10538;DHT22;5317;49.048;8.468;2022-12-24T11:35:59;24.60;48.50
10538;DHT22;5317;49.048;8.468;2022-12-24T11:38:30;24.60;48.50
10538;DHT22;5317;49.048;8.468;2022-12-24T11:41:05;24.60;48.50
10538;DHT22;5317;49.048;8.468;2022-12-24T11:43:39;24.60;48.50
10538;DHT22;5317;49.048;8.468;2022-12-24T11:46:18;24.60;48.60
10538;DHT22;5317;49.048;8.468;2022-12-24T11:49:21;24.60;48.70
10538;DHT22;5317;49.048;8.468;2022-12-24T11:52:22;24.60;48.90
10538;DHT22;5317;49.048;8.468;2022-12-24T11:55:11;24.60;48.80
10538;DHT22;5317;49.048;8.468;2022-12-24T11:57:51;24.70;49.00
10538;DHT22;5317;49.048;8.468;2022-12-24T12:00:25;24.70;48.90
10538;DHT22;5317;49.048;8.468;2022-12-24T12:02:56;24.70;48.70
10538;DHT22;5317;49.048;8.468;2022-12-24T12:05:31;24.70;49.00
10538;DHT22;5317;49.048;8.468;2022-12-24T12:08:07;24.70;48.90
10538;DHT22;5317;49.048;8.468;2022-12-24T12:10:42;24.80;48.70
10538;DHT22;5317;49.048;8.468;2022-12-24T12:13:13;24.80;48.70
10538;DHT22;5317;49.048;8.468;2022-12-24T12:15:46;24.70;49.00
10538;DHT22;5317;49.048;8.468;2022-12-24T12:18:21;24.70;49.20
10538;DHT22;5317;49.048;8.468;2022-12-24T12:20:55;24.70;49.20
10538;DHT22;5317;49.048;8.468;2022-12-24T12:23:33;24.80;49.40
10538;DHT22;5317;49.048;8.468;2022-12-24T12:26:09;24.90;49.60
10538;DHT22;5317;49.048;8.468;2022-12-24T12:28:43;24.90;49.50
10538;DHT22;5317;49.048;8.468;2022-12-24T12:31:17;24.90;49.60
10538;DHT22;5317;49.048;8.468;2022-12-24T12:33:51;24.90;49.50
10538;DHT22;5317;49.048;8.468;2022-12-24T12:36:27;24.90;49.60
10538;DHT22;5317;49.048;8.468;2022-12-24T12:38:59;24.90;49.60
10538;DHT22;5317;49.048;8.468;2022-12-24T12:41:36;24.90;49.60
10538;DHT22;5317;49.048;8.468;2022-12-24T12:44:27;24.90;49.70
10538;DHT22;5317;49.048;8.468;2022-12-24T12:47:37;24.90;49.80
10538;DHT22;5317;49.048;8.468;2022-12-24T12:50:22;24.90;49.80
10538;DHT22;5317;49.048;8.468;2022-12-24T12:53:06;24.90;49.70
10538;DHT22;5317;49.048;8.468;2022-12-24T12:56:04;24.90;49.80
10538;DHT22;5317;49.048;8.468;2022-12-24T12:58:40;24.90;50.30
10538;DHT22;5317;49.048;8.468;2022-12-24T13:01:17;24.90;49.70
10538;DHT22;5317;49.048;8.468;2022-12-24T13:04:15;24.90;49.70
10538;DHT22;5317;49.048;8.468;2022-12-24T13:10:22;24.90;49.80
10538;DHT22;5317;49.048;8.468;2022-12-24T13:13:25;24.90;49.80
10538;DHT22;5317;49.048;8.468;2022-12-24T13:16:32;24.90;49.90
10538;DHT22;5317;49.048;8.468;2022-12-24T13:19:24;24.90;50.00
10538;DHT22;5317;49.048;8.468;2022-12-24T13:22:02;24.90;49.90
10538;DHT22;5317;49.048;8.468;2022-12-24T13:24:30;24.90;49.80
10538;DHT22;5317;49.048;8.468;2022-12-24T13:27:02;24.90;49.80
10538;DHT22;5317;49.048;8.468;2022-12-24T13:29:51;24.90;49.80
10538;DHT22;5317;49.048;8.468;2022-12-24T13:32:42;24.90;50.00
10538;DHT22;5317;49.048;8.468;2022-12-24T13:35:35;24.90;50.00
10538;DHT22;5317;49.048;8.468;2022-12-24T13:44:19;24.90;50.10
10538;DHT22;5317;49.048;8.468;2022-12-24T13:46:56;24.90;49.90
10538;DHT22;5317;49.048;8.468;2022-12-24T13:49:29;24.90;49.90
10538;DHT22;5317;49.048;8.468;2022-12-24T13:52:17;24.90;50.00
10538;DHT22;5317;49.048;8.468;2022-12-24T13:55:00;24.90;50.10
10538;DHT22;5317;49.048;8.468;2022-12-24T13:57:38;24.90;50.10
10538;DHT22;5317;49.048;8.468;2022-12-24T14:00:25;24.90;50.00
10538;DHT22;5317;49.048;8.468;2022-12-24T14:03:18;24.80;50.00
10538;DHT22;5317;49.048;8.468;2022-12-24T14:05:54;24.80;50.00
10538;DHT22;5317;49.048;8.468;2022-12-24T14:08:30;24.80;49.90
10538;DHT22;5317;49.048;8.468;2022-12-24T14:11:05;24.90;50.10
10538;DHT22;5317;49.048;8.468;2022-12-24T14:13:54;24.90;50.10
10538;DHT22;5317;49.048;8.468;2022-12-24T14:16:48;24.80;50.10
10538;DHT22;5317;49.048;8.468;2022-12-24T14:19:20;24.80;49.80
10538;DHT22;5317;49.048;8.468;2022-12-24T14:21:54;24.80;49.90
10538;DHT22;5317;49.048;8.468;2022-12-24T14:24:27;24.90;50.10
10538;DHT22;5317;49.048;8.468;2022-12-24T14:27:07;24.90;50.00
10538;DHT22;5317;49.048;8.468;2022-12-24T14:29:47;24.80;50.60
10538;DHT22;5317;49.048;8.468;2022-12-24T14:32:18;24.80;50.00
10538;DHT22;5317;49.048;8.468;2022-12-24T14:35:04;24.80;50.40
10538;DHT22;5317;49.048;8.468;2022-12-24T14:37:33;24.80;50.10
10538;DHT22;5317;49.048;8.468;2022-12-24T14:40:00;24.80;49.80
10538;DHT22;5317;49.048;8.468;2022-12-24T14:42:37;24.80;50.00
10538;DHT22;5317;49.048;8.468;2022-12-24T14:47:32;24.70;47.60
10538;DHT22;5317;49.048;8.468;2022-12-24T14:50:23;23.80;47.10
10538;DHT22;5317;49.048;8.468;2022-12-24T14:52:59;22.80;48.00
10538;DHT22;5317;49.048;8.468;2022-12-24T14:55:35;21.90;48.90
10538;DHT22;5317;49.048;8.468;2022-12-24T14:58:30;21.10;50.00
10538;DHT22;5317;49.048;8.468;2022-12-24T15:00:59;20.40;51.70
10538;DHT22;5317;49.048;8.468;2022-12-24T15:03:29;19.90;52.10
10538;DHT22;5317;49.048;8.468;2022-12-24T15:05:58;19.50;53.00
10538;DHT22;5317;49.048;8.468;2022-12-24T15:08:29;19.10;53.80
10538;DHT22;5317;49.048;8.468;2022-12-24T15:11:01;18.80;54.50
10538;DHT22;5317;49.048;8.468;2022-12-24T15:13:32;18.50;55.20
10538;DHT22;5317;49.048;8.468;2022-12-24T15:16:01;18.20;55.70
10538;DHT22;5317;49.048;8.468;2022-12-24T15:18:32;18.00;56.20
10538;DHT22;5317;49.048;8.468;2022-12-24T15:21:02;17.80;56.70
10538;DHT22;5317;49.048;8.468;2022-12-24T15:23:31;17.70;57.10
10538;DHT22;5317;49.048;8.468;2022-12-24T15:26:06;17.60;57.50
10538;DHT22;5317;49.048;8.468;2022-12-24T15:28:36;17.50;58.00
10538;DHT22;5317;49.048;8.468;2022-12-24T15:31:09;17.40;58.10
10538;DHT22;5317;49.048;8.468;2022-12-24T15:33:38;17.30;58.30
10538;DHT22;5317;49.048;8.468;2022-12-24T15:36:07;17.20;58.40
10538;DHT22;5317;49.048;8.468;2022-12-24T15:38:36;17.20;58.60
10538;DHT22;5317;49.048;8.468;2022-12-24T15:41:07;17.10;58.80
10538;DHT22;5317;49.048;8.468;2022-12-24T15:43:38;17.00;59.10
10538;DHT22;5317;49.048;8.468;2022-12-24T15:46:06;17.00;59.20
10538;DHT22;5317;49.048;8.468;2022-12-24T15:48:34;16.90;59.10
10538;DHT22;5317;49.048;8.468;2022-12-24T15:51:04;16.80;59.30
10538;DHT22;5317;49.048;8.468;2022-12-24T15:53:34;16.80;59.40
10538;DHT22;5317;49.048;8.468;2022-12-24T15:56:08;16.80;59.70
10538;DHT22;5317;49.048;8.468;2022-12-24T15:58:37;16.70;60.00
10538;DHT22;5317;49.048;8.468;2022-12-24T16:01:26;16.80;60.10
10538;DHT22;5317;49.048;8.468;2022-12-24T16:03:56;16.70;60.90
10538;DHT22;5317;49.048;8.468;2022-12-24T16:06:26;16.70;60.50
10538;DHT22;5317;49.048;8.468;2022-12-24T16:08:54;16.70;60.70
10538;DHT22;5317;49.048;8.468;2022-12-24T16:11:25;16.60;60.80
10538;DHT22;5317;49.048;8.468;2022-12-24T16:14:09;16.60;61.10
10538;DHT22;5317;49.048;8.468;2022-12-24T16:16:39;16.60;61.80
10538;DHT22;5317;49.048;8.468;2022-12-24T16:19:15;16.50;61.70
10538;DHT22;5317;49.048;8.468;2022-12-24T16:21:44;16.50;62.10
10538;DHT22;5317;49.048;8.468;2022-12-24T16:24:15;16.50;61.80
10538;DHT22;5317;49.048;8.468;2022-12-24T16:26:42;16.50;62.10
10538;DHT22;5317;49.048;8.468;2022-12-24T16:29:09;16.40;62.00
10538;DHT22;5317;49.048;8.468;2022-12-24T16:31:42;16.40;62.20